Home   Weather   India   Surat   Past weeks
Flag for India

Past Weather in Surat, Gujarat, India — Yesterday and Last 2 Weeks

Currently: 81 °F. Clear. (Weather station: Ahmadabad Airport, India). See more current weather

Past Weather in Surat — Graph

°F

Surat Temperature Yesterday

Maximum temperature yesterday: 99 °F (at 3:30 pm)
Minimum temperature yesterday: 70 °F (at 6:30 am)
Average temperature yesterday: 85 °F

High & Low Weather Summary for the Past Weeks

 TemperatureHumidityPressure
High104 °F (Mar 5, 3:00 pm)88% (Feb 24, 6:00 am)30.07 "Hg (Feb 24, 6:00 am)
Low59 °F (Feb 22, 5:00 am)10% (Mar 3, 2:30 pm)29.74 "Hg (Feb 26, 4:00 pm)
Average81 °F40%29.87 "Hg
* Reported Feb 20 10:30 pm — Mar 7 11:00 pm, Surat. Weather by CustomWeather, © 2021

Note: Actual official high and low records may vary slightly from our data, if they occured in-between our weather recording intervals... More about our weather records

Surat Weather History for the Previous 24 Hours

Scroll right to see more
 ConditionsComfort  
Time TempWeatherWind HumidityBarometerVisibility
11:00 pm
Sun, Mar 7
79 °FClear.7 mph51%29.83 "Hg2 mi
10:30 pm81 °FClear.7 mph45%29.83 "Hg2 mi
10:00 pm82 °FClear.6 mph40%29.83 "Hg2 mi
9:30 pm82 °FClear.7 mph40%29.83 "Hg2 mi
9:00 pm88 °FClear.6 mph31%29.83 "Hg2 mi
8:30 pm90 °FClear.7 mph29%29.80 "Hg2 mi
8:00 pm91 °FClear.5 mph30%29.80 "Hg2 mi
7:30 pm91 °FClear.6 mph30%29.77 "Hg2 mi
7:00 pm93 °FClear.3 mph26%29.77 "Hg2 mi
6:30 pm95 °FClear.6 mph15%29.77 "Hg3 mi
6:00 pm97 °FClear.7 mph14%29.77 "Hg4 mi
5:30 pm99 °FClear.8 mph15%29.77 "Hg4 mi
5:00 pm99 °FClear.12 mph16%29.77 "Hg4 mi
4:30 pm99 °FClear.8 mph16%29.77 "Hg4 mi
4:00 pm99 °FClear.14 mph17%29.77 "Hg4 mi
3:30 pm99 °FClear.12 mph17%29.80 "Hg4 mi
3:00 pm97 °FClear.14 mph20%29.80 "Hg4 mi
2:30 pm97 °FClear.12 mph22%29.80 "Hg4 mi
2:00 pm95 °FClear.12 mph23%29.83 "Hg4 mi
1:30 pm95 °FClear.8 mph25%29.83 "Hg4 mi
1:00 pm93 °FClear.8 mph24%29.86 "Hg3 mi
12:30 pm91 °FClear.7 mph26%29.86 "Hg3 mi
12:00 pm91 °FClear.7 mph26%29.89 "Hg2 mi
11:30 am90 °FClear.6 mph29%29.89 "Hg2 mi
11:00 am90 °FClear.5 mph29%29.92 "Hg2 mi
10:30 am88 °FClear.5 mph31%29.92 "Hg2 mi
10:00 am84 °FClear.3 mph40%29.92 "Hg2 mi
9:30 am82 °FClear.2 mph45%29.89 "Hg2 mi
9:00 am81 °FClear.2 mph48%29.89 "Hg2 mi
8:30 am77 °FClear.2 mph57%29.89 "Hg2 mi
8:00 am73 °FHaze.2 mph69%29.86 "Hg2 mi
7:30 am70 °FHaze.3 mph78%29.86 "Hg2 mi
7:00 am70 °FHaze.No wind73%29.83 "Hg2 mi
6:30 am70 °FHaze.No wind64%29.83 "Hg2 mi
6:00 am72 °FHaze.3 mph65%29.80 "Hg2 mi
5:30 am73 °FClear.3 mph61%29.80 "Hg2 mi
5:00 am73 °FClear.2 mph53%29.80 "Hg2 mi
4:30 am75 °FClear.3 mph47%29.80 "Hg2 mi
4:00 am77 °FClear.7 mph42%29.80 "Hg2 mi
3:30 am77 °FClear.3 mph36%29.80 "Hg2 mi
3:00 am77 °FClear.5 mph34%29.80 "Hg2 mi
2:30 am79 °FClear.3 mph30%29.80 "Hg2 mi
2:00 am81 °FClear.5 mph28%29.80 "Hg2 mi
1:30 am79 °FClear.No wind34%29.80 "Hg2 mi
1:00 am79 °FClear.3 mph34%29.83 "Hg2 mi
12:30 am81 °FClear.No wind39%29.83 "Hg2 mi
12:00 am82 °FClear.5 mph37%29.83 "Hg2 mi
Weather by CustomWeather, © 2021

See weather overview